Time;durP1;ratioP1;P1;durP2;ratioP2;P2;SDS_P1;SDS_P2;PMS_P1;PMS_P2;Temp;Humidity;BMP_temperature;BMP_pressure;BME280_temperature;BME280_humidity;BME280_pressure;Samples;Min_cycle;Max_cycle;Signal;HPM_P1;HPM_P2
2022/09/09 00:01:34;;;;;;;1.27;0.80;;;26.60;52.10;;;;;;5123923;28;20537;-67
2022/09/09 00:04:14;;;;;;;1.30;1.20;;;26.60;52.60;;;;;;5108880;28;20464;-66
2022/09/09 00:06:57;;;;;;;1.20;0.60;;;26.50;53.20;;;;;;5092311;28;20460;-67
2022/09/09 00:09:30;;;;;;;1.13;1.03;;;26.50;53.20;;;;;;5103565;28;20487;-67
2022/09/09 00:12:06;;;;;;;1.30;0.90;;;26.40;52.30;;;;;;5102998;28;20461;-67
2022/09/09 00:14:44;;;;;;;1.17;0.67;;;26.40;52.60;;;;;;5099885;28;20472;-67
2022/09/09 00:17:27;;;;;;;0.73;0.73;;;26.30;53.10;;;;;;5102943;28;20495;-69
2022/09/09 00:20:04;;;;;;;1.23;0.80;;;26.10;53.10;;;;;;5105091;28;20808;-67
2022/09/09 00:22:37;;;;;;;0.67;0.67;;;25.90;53.40;;;;;;5113344;28;20460;-67
2022/09/09 00:25:16;;;;;;;1.07;0.93;;;25.90;53.70;;;;;;5104911;28;20457;-67
2022/09/09 00:27:49;;;;;;;3.70;1.20;;;25.90;53.90;;;;;;5100579;28;20464;-67
2022/09/09 00:30:22;;;;;;;1.10;1.00;;;25.80;54.20;;;;;;5096565;28;20468;-70
2022/09/09 00:32:58;;;;;;;1.03;0.80;;;25.70;54.40;;;;;;5104778;28;20488;-68
2022/09/09 00:35:32;;;;;;;2.33;1.13;;;25.60;54.60;;;;;;5101646;28;20493;-68
2022/09/09 00:38:14;;;;;;;1.47;0.63;;;25.60;54.70;;;;;;5103657;28;20451;-68
2022/09/09 00:40:52;;;;;;;1.20;0.83;;;25.70;53.70;;;;;;5107073;28;20478;-68
2022/09/09 00:43:29;;;;;;;1.20;1.10;;;25.60;55.00;;;;;;5092691;28;20508;-68
2022/09/09 00:46:28;;;;;;;0.70;0.70;;;25.60;55.30;;;;;;5103060;28;20454;-66
2022/09/09 00:49:10;;;;;;;2.20;1.20;;;25.60;55.00;;;;;;5098511;28;20566;-67
2022/09/09 00:51:50;;;;;;;0.77;0.77;;;25.60;54.60;;;;;;5113475;28;20476;-67
2022/09/09 00:54:37;;;;;;;1.00;0.90;;;25.50;54.60;;;;;;5100061;28;20520;-67
2022/09/09 00:57:18;;;;;;;0.60;0.60;;;25.40;54.30;;;;;;5092719;28;20524;-65
2022/09/09 00:59:52;;;;;;;0.83;0.80;;;25.40;53.90;;;;;;5105407;28;20463;-68
2022/09/09 01:02:31;;;;;;;1.57;0.90;;;25.40;54.10;;;;;;5101972;28;20466;-67
2022/09/09 01:05:09;;;;;;;0.80;0.80;;;25.30;53.60;;;;;;5106511;28;20773;-65
2022/09/09 01:07:40;;;;;;;0.80;0.63;;;25.30;53.80;;;;;;5122518;27;20446;-67
2022/09/09 01:10:22;;;;;;;1.03;0.90;;;25.20;54.60;;;;;;5109861;28;20466;-67
2022/09/09 01:12:55;;;;;;;0.90;0.90;;;25.10;54.50;;;;;;5104215;28;20472;-67
2022/09/09 01:15:30;;;;;;;2.40;1.20;;;25.10;55.20;;;;;;5101953;28;20497;-69
2022/09/09 01:18:05;;;;;;;3.53;1.23;;;25.10;54.50;;;;;;5103876;28;20490;-70
2022/09/09 01:20:45;;;;;;;1.40;1.10;;;25.00;55.10;;;;;;5092267;28;20471;-69
2022/09/09 01:23:48;;;;;;;1.97;1.27;;;25.00;55.10;;;;;;5090321;28;20473;-68
2022/09/09 01:26:27;;;;;;;1.27;1.17;;;25.00;55.40;;;;;;5104179;28;20459;-69
2022/09/09 01:28:58;;;;;;;1.33;1.10;;;24.90;54.90;;;;;;5106963;28;20474;-67
2022/09/09 01:31:33;;;;;;;3.30;0.80;;;24.80;54.80;;;;;;5107213;28;20434;-68
2022/09/09 01:34:03;;;;;;;1.17;1.07;;;24.70;55.50;;;;;;5105245;28;20455;-66
2022/09/09 01:36:41;;;;;;;0.90;0.80;;;24.60;55.10;;;;;;5105440;28;20500;-68
2022/09/09 01:39:13;;;;;;;2.70;1.87;;;24.50;55.80;;;;;;5101716;28;20458;-68
2022/09/09 01:41:45;;;;;;;4.30;2.70;;;24.40;56.20;;;;;;5109546;28;20487;-67
2022/09/09 01:44:17;;;;;;;2.90;2.00;;;24.30;56.20;;;;;;5117009;28;20468;-67
2022/09/09 01:46:48;;;;;;;3.10;2.50;;;24.20;56.10;;;;;;5110700;28;20458;-66
2022/09/09 01:49:20;;;;;;;5.10;2.93;;;24.20;56.00;;;;;;5100103;28;20466;-71
2022/09/09 01:51:53;;;;;;;0.90;0.70;;;24.10;56.90;;;;;;5089244;28;20478;-71
2022/09/09 01:54:27;;;;;;;0.93;0.80;;;24.00;56.80;;;;;;5100364;28;20748;-71
2022/09/09 01:57:13;;;;;;;0.90;0.90;;;23.80;57.60;;;;;;5103279;28;20516;-69
2022/09/09 01:59:55;;;;;;;1.10;1.00;;;23.80;57.60;;;;;;5102715;28;20450;-69
2022/09/09 02:02:32;;;;;;;1.00;1.00;;;23.70;57.90;;;;;;5101434;28;20865;-68
2022/09/09 02:05:14;;;;;;;2.17;1.00;;;23.70;57.90;;;;;;5100782;28;20492;-70
2022/09/09 02:07:48;;;;;;;1.40;1.03;;;23.60;58.50;;;;;;5099863;28;20465;-70
2022/09/09 02:10:22;;;;;;;0.60;0.60;;;23.50;58.60;;;;;;5115079;28;20445;-71
2022/09/09 02:13:04;;;;;;;0.90;0.90;;;23.40;58.60;;;;;;5108593;28;20446;-69
2022/09/09 02:15:38;;;;;;;1.17;1.07;;;23.40;58.80;;;;;;5099962;28;20429;-73
2022/09/09 02:18:12;;;;;;;1.20;0.87;;;23.30;58.70;;;;;;5105838;28;20477;-70
2022/09/09 02:20:44;;;;;;;2.70;1.23;;;23.30;59.20;;;;;;5103285;28;20607;-70
2022/09/09 02:23:17;;;;;;;0.83;0.67;;;23.20;59.50;;;;;;5104123;28;20469;-71
2022/09/09 02:25:51;;;;;;;0.90;0.90;;;23.10;60.10;;;;;;5108798;28;20538;-67
2022/09/09 02:28:27;;;;;;;1.33;1.23;;;22.90;60.00;;;;;;5100519;28;20466;-71
2022/09/09 02:30:58;;;;;;;1.17;0.97;;;22.90;60.20;;;;;;5101429;28;20462;-74
2022/09/09 02:33:32;;;;;;;0.73;0.73;;;22.80;60.90;;;;;;5107959;28;20461;-70
2022/09/09 02:36:06;;;;;;;2.30;1.40;;;22.70;60.80;;;;;;5107502;28;20525;-69
2022/09/09 02:38:42;;;;;;;1.30;1.03;;;22.60;60.50;;;;;;5109193;28;20466;-70
2022/09/09 02:41:13;;;;;;;1.10;1.00;;;22.50;60.80;;;;;;5118344;28;20462;-71
2022/09/09 02:43:45;;;;;;;1.10;1.00;;;22.40;61.10;;;;;;5106433;28;20443;-70
2022/09/09 02:46:30;;;;;;;1.30;1.20;;;22.30;61.40;;;;;;5105026;28;20459;-71
2022/09/09 02:49:05;;;;;;;4.07;1.40;;;22.30;61.30;;;;;;5111907;28;20457;-70
2022/09/09 02:51:43;;;;;;;2.00;1.63;;;22.20;61.50;;;;;;5113455;28;20445;-70
2022/09/09 02:54:25;;;;;;;2.10;1.90;;;22.10;61.80;;;;;;5126167;28;20420;-71
2022/09/09 02:56:56;;;;;;;2.43;1.60;;;22.00;61.40;;;;;;5109274;28;20489;-70
2022/09/09 02:59:29;;;;;;;2.30;1.60;;;22.00;61.60;;;;;;5118284;28;20771;-70
2022/09/09 03:01:59;;;;;;;2.13;1.70;;;22.00;61.60;;;;;;5107412;28;20442;-70
2022/09/09 03:04:31;;;;;;;2.20;1.33;;;22.00;61.30;;;;;;5125924;28;20452;-69
2022/09/09 03:07:03;;;;;;;1.67;1.43;;;21.90;61.80;;;;;;5109868;28;20962;-71
2022/09/09 03:09:34;;;;;;;1.23;1.13;;;21.70;61.60;;;;;;5106257;28;20463;-71
2022/09/09 03:12:06;;;;;;;1.70;1.60;;;21.70;61.90;;;;;;5108905;28;20839;-69
2022/09/09 03:14:38;;;;;;;1.27;1.17;;;21.70;61.30;;;;;;5120061;28;20454;-69
2022/09/09 03:17:09;;;;;;;1.60;1.50;;;21.70;61.60;;;;;;5112953;28;20498;-69
2022/09/09 03:19:39;;;;;;;1.40;1.30;;;21.60;61.70;;;;;;5101083;28;20522;-69
2022/09/09 03:22:13;;;;;;;3.20;1.60;;;21.60;61.40;;;;;;5096596;28;20458;-68
2022/09/09 03:24:44;;;;;;;2.27;2.07;;;21.60;61.60;;;;;;5105732;28;20462;-69
2022/09/09 03:27:15;;;;;;;1.73;1.10;;;21.50;61.30;;;;;;5103551;28;20562;-69
2022/09/09 03:29:49;;;;;;;1.93;1.40;;;21.40;62.00;;;;;;5113007;28;20499;-68
2022/09/09 03:32:22;;;;;;;1.67;1.33;;;21.30;62.10;;;;;;5112937;28;20454;-68
2022/09/09 03:34:54;;;;;;;1.40;1.20;;;21.30;61.90;;;;;;5108668;28;20486;-68
2022/09/09 03:37:24;;;;;;;1.20;1.20;;;21.20;62.50;;;;;;5105572;28;20482;-68
2022/09/09 03:39:55;;;;;;;2.00;1.60;;;21.10;62.40;;;;;;5105163;28;20440;-69
2022/09/09 03:42:27;;;;;;;0.93;0.80;;;21.00;62.90;;;;;;5115588;28;20447;-69
2022/09/09 03:44:59;;;;;;;1.30;1.20;;;20.90;63.00;;;;;;5106017;28;20462;-71
2022/09/09 03:47:30;;;;;;;1.50;1.23;;;20.80;62.90;;;;;;5104514;28;20515;-69
2022/09/09 03:50:00;;;;;;;1.47;1.17;;;20.70;63.30;;;;;;5114495;28;20484;-68
2022/09/09 03:52:31;;;;;;;1.37;1.17;;;20.60;63.60;;;;;;5102162;28;20892;-70
2022/09/09 03:55:02;;;;;;;1.53;1.40;;;20.50;64.40;;;;;;5101809;28;20458;-72
2022/09/09 03:57:34;;;;;;;1.20;1.10;;;20.40;64.50;;;;;;5104105;28;20474;-69
2022/09/09 04:00:09;;;;;;;1.17;1.07;;;20.50;63.20;;;;;;5104400;28;20436;-70
2022/09/09 04:02:40;;;;;;;0.90;0.90;;;20.50;63.40;;;;;;5105606;28;20523;-69
2022/09/09 04:05:11;;;;;;;1.27;1.07;;;20.50;63.20;;;;;;5103878;28;20464;-68
2022/09/09 04:07:42;;;;;;;1.20;1.07;;;20.40;64.20;;;;;;5092385;28;20417;-69
2022/09/09 04:10:15;;;;;;;1.30;0.90;;;20.30;63.70;;;;;;5101424;28;20462;-67
2022/09/09 04:12:46;;;;;;;0.83;0.60;;;20.30;64.40;;;;;;5110131;28;20459;-67
2022/09/09 04:15:20;;;;;;;0.90;0.90;;;20.20;64.40;;;;;;5104073;28;20442;-67
2022/09/09 04:17:51;;;;;;;1.87;1.20;;;20.10;64.70;;;;;;5103380;28;20555;-68
2022/09/09 04:20:21;;;;;;;1.10;0.87;;;20.00;65.30;;;;;;5108421;28;20459;-67
2022/09/09 04:22:52;;;;;;;1.10;0.80;;;19.90;66.00;;;;;;5120119;28;20496;-67
2022/09/09 04:25:23;;;;;;;0.80;0.80;;;19.80;65.60;;;;;;5107174;28;20432;-67
2022/09/09 04:27:56;;;;;;;1.10;0.80;;;19.70;66.30;;;;;;5110653;28;20464;-68
2022/09/09 04:30:28;;;;;;;1.00;0.90;;;19.70;66.50;;;;;;5102404;28;20465;-68
2022/09/09 04:32:59;;;;;;;1.10;0.97;;;19.70;66.20;;;;;;5122008;28;20944;-68
2022/09/09 04:35:30;;;;;;;1.80;0.87;;;19.70;66.00;;;;;;5123701;28;20454;-68
2022/09/09 04:38:02;;;;;;;0.63;0.63;;;19.70;65.70;;;;;;5119794;28;20476;-68
2022/09/09 04:40:33;;;;;;;1.40;0.57;;;19.70;65.00;;;;;;5115429;28;20462;-68
2022/09/09 04:43:05;;;;;;;2.30;0.73;;;19.70;65.30;;;;;;5104602;28;20462;-68
2022/09/09 04:45:40;;;;;;;0.70;0.70;;;19.60;65.00;;;;;;5101997;28;20461;-68
2022/09/09 04:48:12;;;;;;;0.87;0.80;;;19.60;65.60;;;;;;5103753;28;20444;-68
2022/09/09 04:50:43;;;;;;;1.57;0.60;;;19.60;65.40;;;;;;5108507;27;20425;-70
2022/09/09 04:53:13;;;;;;;0.50;0.50;;;19.50;65.70;;;;;;5111818;28;20485;-68
2022/09/09 04:55:44;;;;;;;2.00;0.50;;;19.40;66.20;;;;;;5110536;28;20458;-68
2022/09/09 04:58:18;;;;;;;3.33;0.90;;;19.40;65.90;;;;;;5105497;28;20539;-67
2022/09/09 05:00:50;;;;;;;0.70;0.67;;;19.30;66.00;;;;;;5102227;28;20483;-67
2022/09/09 05:03:21;;;;;;;0.63;0.60;;;19.30;65.80;;;;;;5107195;28;20455;-67
2022/09/09 05:05:52;;;;;;;1.30;0.50;;;19.30;65.10;;;;;;5102340;28;20466;-69
2022/09/09 05:08:24;;;;;;;1.70;0.60;;;19.30;65.20;;;;;;5102522;28;20429;-68
2022/09/09 05:10:55;;;;;;;1.20;0.70;;;19.20;65.30;;;;;;5104451;28;20477;-69
2022/09/09 05:13:25;;;;;;;3.23;0.63;;;19.30;64.50;;;;;;5114681;28;20454;-69
2022/09/09 05:15:58;;;;;;;2.57;0.90;;;19.20;64.70;;;;;;5094835;28;20462;-68
2022/09/09 05:18:29;;;;;;;0.80;0.50;;;19.30;63.50;;;;;;5101709;28;20560;-68
2022/09/09 05:21:01;;;;;;;0.80;0.67;;;19.30;63.90;;;;;;5098150;28;20543;-68
2022/09/09 05:23:33;;;;;;;1.33;0.60;;;19.10;64.10;;;;;;5103252;28;20887;-68
2022/09/09 05:26:05;;;;;;;1.07;0.50;;;19.10;63.70;;;;;;5102250;28;20421;-68
2022/09/09 05:28:37;;;;;;;1.07;0.93;;;19.10;63.90;;;;;;5103893;28;20444;-68
2022/09/09 05:31:12;;;;;;;1.07;0.60;;;19.10;63.50;;;;;;5109923;28;20429;-68
2022/09/09 05:33:45;;;;;;;0.90;0.50;;;19.00;63.50;;;;;;5106744;28;20838;-68
2022/09/09 05:36:18;;;;;;;1.70;0.57;;;19.10;63.40;;;;;;5102064;28;20425;-68
2022/09/09 05:38:49;;;;;;;0.87;0.70;;;19.00;63.50;;;;;;5102727;28;20461;-68
2022/09/09 05:41:19;;;;;;;1.90;0.70;;;19.00;63.40;;;;;;5103058;28;20489;-68
2022/09/09 05:43:50;;;;;;;0.80;0.80;;;18.90;63.40;;;;;;5104434;28;20444;-68
2022/09/09 05:46:24;;;;;;;1.33;0.93;;;18.90;64.00;;;;;;5103975;28;20433;-68
2022/09/09 05:48:56;;;;;;;1.03;0.80;;;18.90;63.70;;;;;;5105315;28;20461;-68
2022/09/09 05:51:29;;;;;;;1.13;0.70;;;18.90;63.90;;;;;;5104542;28;20437;-68
2022/09/09 05:54:00;;;;;;;0.67;0.67;;;18.80;64.70;;;;;;5107746;28;20437;-68
2022/09/09 05:56:32;;;;;;;0.57;0.57;;;18.70;64.60;;;;;;5106980;28;20441;-68
2022/09/09 05:59:04;;;;;;;1.10;1.00;;;18.60;65.30;;;;;;5104583;28;20459;-68
2022/09/09 06:01:40;;;;;;;0.50;0.50;;;18.60;65.20;;;;;;5105644;28;20436;-68
2022/09/09 06:04:11;;;;;;;3.23;0.90;;;18.60;66.00;;;;;;5110324;28;20448;-68
2022/09/09 06:06:41;;;;;;;0.67;0.50;;;18.50;66.10;;;;;;5106569;28;20425;-68
2022/09/09 06:09:13;;;;;;;1.60;0.90;;;18.50;66.50;;;;;;5116135;28;20552;-68
2022/09/09 06:11:45;;;;;;;0.80;0.80;;;18.30;67.40;;;;;;5108192;28;20565;-68
2022/09/09 06:14:17;;;;;;;0.87;0.60;;;18.30;67.90;;;;;;5106602;28;20435;-68
2022/09/09 06:16:50;;;;;;;1.37;0.70;;;18.20;68.50;;;;;;5115207;28;20497;-68
2022/09/09 06:19:21;;;;;;;1.03;1.00;;;18.30;67.90;;;;;;5111964;28;20490;-67
2022/09/09 06:21:51;;;;;;;0.70;0.60;;;18.40;67.60;;;;;;5112178;28;20515;-68
2022/09/09 06:24:22;;;;;;;0.80;0.80;;;18.40;67.60;;;;;;5104048;28;20469;-67
2022/09/09 06:26:53;;;;;;;0.63;0.63;;;18.40;68.40;;;;;;5109810;28;20454;-68
2022/09/09 06:29:24;;;;;;;1.30;0.70;;;18.30;68.60;;;;;;5115522;28;20523;-68
2022/09/09 06:31:57;;;;;;;0.83;0.67;;;18.30;69.50;;;;;;5109113;28;20458;-68
2022/09/09 06:34:28;;;;;;;1.93;0.90;;;18.30;69.20;;;;;;5120410;28;20512;-68
2022/09/09 06:36:59;;;;;;;0.90;0.60;;;18.20;69.90;;;;;;5098086;28;20438;-68
2022/09/09 06:39:30;;;;;;;0.70;0.70;;;18.20;70.20;;;;;;5110141;28;20489;-68
2022/09/09 06:42:00;;;;;;;0.87;0.87;;;18.10;70.70;;;;;;5103730;28;20455;-68
2022/09/09 06:44:33;;;;;;;0.60;0.60;;;18.10;70.90;;;;;;5095540;28;20434;-68
2022/09/09 06:47:06;;;;;;;0.80;0.60;;;18.20;70.80;;;;;;5117317;28;20425;-68
2022/09/09 06:49:37;;;;;;;0.83;0.73;;;18.20;71.10;;;;;;5118998;28;20546;-68
2022/09/09 06:52:08;;;;;;;0.90;0.90;;;18.10;71.40;;;;;;5108350;28;20467;-69
2022/09/09 06:54:39;;;;;;;0.73;0.60;;;18.00;72.40;;;;;;5109815;28;20420;-68
2022/09/09 06:57:10;;;;;;;0.93;0.70;;;17.90;73.10;;;;;;5094595;28;20429;-69
2022/09/09 07:00:01;;;;;;;1.57;0.80;;;17.80;73.00;;;;;;5115173;28;21251;-69
2022/09/09 07:02:38;;;;;;;0.50;0.50;;;17.80;73.70;;;;;;5106898;28;20437;-68
2022/09/09 07:05:10;;;;;;;2.90;1.10;;;17.70;74.00;;;;;;5104898;28;20436;-68
2022/09/09 07:07:41;;;;;;;0.60;0.50;;;17.70;74.10;;;;;;5108294;28;20546;-68
2022/09/09 07:10:12;;;;;;;0.80;0.80;;;17.60;75.00;;;;;;5111298;28;20448;-68
2022/09/09 07:12:43;;;;;;;0.90;0.63;;;17.60;75.20;;;;;;5094236;28;20440;-68
2022/09/09 07:15:13;;;;;;;0.70;0.70;;;17.50;76.40;;;;;;5104303;28;20454;-68
2022/09/09 07:17:46;;;;;;;0.90;0.80;;;17.40;77.30;;;;;;5107355;28;20539;-69
2022/09/09 07:20:17;;;;;;;1.17;1.07;;;17.40;77.20;;;;;;5107112;28;20498;-68
2022/09/09 07:22:47;;;;;;;1.37;0.90;;;17.40;77.10;;;;;;5115739;28;20459;-68
2022/09/09 07:25:18;;;;;;;1.07;0.87;;;17.30;77.70;;;;;;5104856;28;20791;-68
2022/09/09 07:27:49;;;;;;;1.23;0.80;;;17.30;78.20;;;;;;5109484;28;20441;-68
2022/09/09 07:30:20;;;;;;;0.67;0.67;;;17.20;78.80;;;;;;5107317;28;20929;-68
2022/09/09 07:32:59;;;;;;;0.73;0.73;;;17.20;80.00;;;;;;5108872;28;20518;-68
2022/09/09 07:35:29;;;;;;;1.00;0.80;;;17.10;79.60;;;;;;5105351;28;20484;-68
2022/09/09 07:38:03;;;;;;;1.73;1.00;;;17.10;80.00;;;;;;5105415;28;20462;-68
2022/09/09 07:40:33;;;;;;;0.73;0.63;;;17.10;80.30;;;;;;5106736;28;20501;-68
2022/09/09 07:43:04;;;;;;;1.40;0.60;;;17.00;81.20;;;;;;5106584;28;20450;-68
2022/09/09 07:45:36;;;;;;;1.17;1.07;;;16.90;81.50;;;;;;5110989;28;20461;-68
2022/09/09 07:48:10;;;;;;;1.20;1.10;;;16.80;81.80;;;;;;5110009;28;20463;-68
2022/09/09 07:50:41;;;;;;;1.93;1.07;;;16.80;82.20;;;;;;5102430;28;20579;-68
2022/09/09 07:53:12;;;;;;;1.60;1.00;;;16.70;83.10;;;;;;5117186;28;20470;-68
2022/09/09 07:55:43;;;;;;;2.43;1.10;;;16.70;83.20;;;;;;5105673;28;20801;-68
2022/09/09 07:58:13;;;;;;;1.17;0.77;;;16.60;83.80;;;;;;5109248;28;20466;-68
2022/09/09 08:00:44;;;;;;;1.00;0.90;;;16.60;84.40;;;;;;5107991;28;20836;-68
2022/09/09 08:03:17;;;;;;;1.10;1.00;;;16.60;84.60;;;;;;5108842;28;20553;-68
2022/09/09 08:05:47;;;;;;;0.80;0.80;;;16.50;85.30;;;;;;5107231;28;20541;-68
2022/09/09 08:08:18;;;;;;;1.20;1.10;;;16.60;85.20;;;;;;5104786;28;20540;-68
2022/09/09 08:10:49;;;;;;;0.70;0.50;;;16.50;86.00;;;;;;5102662;28;20471;-68
2022/09/09 08:13:20;;;;;;;1.17;1.07;;;16.50;86.20;;;;;;5105539;28;20458;-68
2022/09/09 08:15:51;;;;;;;1.03;0.90;;;16.40;86.70;;;;;;5103593;28;20433;-68
2022/09/09 08:18:23;;;;;;;1.20;1.10;;;16.40;87.10;;;;;;5108120;28;20468;-68
2022/09/09 08:20:54;;;;;;;1.40;1.30;;;16.40;87.60;;;;;;5121805;28;20489;-68
2022/09/09 08:23:25;;;;;;;0.87;0.87;;;16.40;88.00;;;;;;5122260;28;20830;-68
2022/09/09 08:26:04;;;;;;;0.60;0.60;;;16.40;88.30;;;;;;5109599;28;20466;-68
2022/09/09 08:28:35;;;;;;;0.57;0.57;;;16.30;88.70;;;;;;5098769;28;20589;-69
2022/09/09 08:31:10;;;;;;;1.97;0.83;;;16.30;89.60;;;;;;5110422;28;20776;-68
2022/09/09 08:33:45;;;;;;;1.73;0.90;;;16.30;90.00;;;;;;5107498;28;20446;-69
2022/09/09 08:36:18;;;;;;;1.60;1.10;;;16.30;90.20;;;;;;5104352;28;20440;-69
2022/09/09 08:38:51;;;;;;;1.47;1.00;;;16.30;90.80;;;;;;5105658;28;20959;-69
2022/09/09 08:41:45;;;;;;;1.07;0.80;;;16.20;91.10;;;;;;5104847;28;20448;-68
2022/09/09 08:44:23;;;;;;;1.30;0.90;;;16.10;91.50;;;;;;5101259;28;20950;-68
2022/09/09 08:47:01;;;;;;;0.67;0.60;;;16.00;91.90;;;;;;5103605;28;20478;-68
2022/09/09 08:50:01;;;;;;;0.90;0.87;;;16.00;92.20;;;;;;5105332;28;20437;-68
2022/09/09 08:52:37;;;;;;;1.30;0.67;;;15.90;92.30;;;;;;5095947;28;20515;-68
2022/09/09 08:55:22;;;;;;;0.63;0.63;;;16.00;92.60;;;;;;5093665;28;20437;-69
2022/09/09 08:57:56;;;;;;;1.43;1.07;;;16.10;92.60;;;;;;5102061;28;20485;-69
2022/09/09 09:00:37;;;;;;;1.10;1.00;;;16.10;92.70;;;;;;5105572;28;20498;-69
2022/09/09 09:03:19;;;;;;;1.60;1.43;;;16.10;92.90;;;;;;5104839;28;20458;-68
2022/09/09 09:06:03;;;;;;;3.13;1.07;;;16.10;93.30;;;;;;5104285;28;20465;-68
2022/09/09 09:08:42;;;;;;;1.30;1.20;;;16.00;93.80;;;;;;5103289;28;20542;-69
2022/09/09 09:11:13;;;;;;;2.47;1.43;;;16.00;93.90;;;;;;5102205;28;20434;-69
2022/09/09 09:13:48;;;;;;;1.20;1.10;;;16.00;94.30;;;;;;5106409;28;20463;-69
2022/09/09 09:16:28;;;;;;;1.80;1.37;;;15.90;94.70;;;;;;5118643;28;20449;-69
2022/09/09 09:19:00;;;;;;;0.97;0.90;;;15.90;95.30;;;;;;5094378;28;20456;-68
2022/09/09 09:21:40;;;;;;;1.20;1.10;;;15.90;95.60;;;;;;5102910;28;20470;-69
2022/09/09 09:24:19;;;;;;;3.50;1.47;;;15.80;95.80;;;;;;5104066;28;20462;-69
2022/09/09 09:26:52;;;;;;;3.67;1.50;;;15.90;96.00;;;;;;5110214;28;20786;-69
2022/09/09 09:29:26;;;;;;;5.50;1.43;;;15.70;96.70;;;;;;5109504;28;20458;-69
2022/09/09 09:32:00;;;;;;;2.87;1.07;;;15.60;97.20;;;;;;5105045;28;20457;-69
2022/09/09 09:34:31;;;;;;;1.90;1.30;;;15.60;97.80;;;;;;5109192;28;20446;-69
2022/09/09 09:37:13;;;;;;;3.13;1.83;;;15.60;98.20;;;;;;5111865;28;20466;-69
2022/09/09 09:39:43;;;;;;;3.17;1.50;;;15.60;98.40;;;;;;5106759;28;20490;-69
2022/09/09 09:42:34;;;;;;;2.30;1.73;;;15.60;98.80;;;;;;5102351;28;20675;-69
2022/09/09 09:45:18;;;;;;;1.50;1.40;;;15.60;99.40;;;;;;5100634;28;20466;-70
2022/09/09 09:47:59;;;;;;;2.20;1.70;;;15.50;99.70;;;;;;5104512;28;20458;-70
2022/09/09 09:50:36;;;;;;;1.90;1.73;;;15.50;99.90;;;;;;5100366;28;20517;-69
2022/09/09 09:53:19;;;;;;;2.40;1.27;;;15.50;99.90;;;;;;5103354;28;20473;-70
2022/09/09 09:55:55;;;;;;;2.00;1.30;;;15.40;99.90;;;;;;5107658;28;20855;-70
2022/09/09 09:58:29;;;;;;;1.33;1.23;;;15.30;99.90;;;;;;5101436;28;20490;-69
2022/09/09 10:01:00;;;;;;;1.90;1.63;;;15.30;99.90;;;;;;5100505;28;20518;-70
2022/09/09 10:03:37;;;;;;;1.97;1.60;;;15.20;99.90;;;;;;5102342;28;20462;-70
2022/09/09 10:06:08;;;;;;;1.80;1.60;;;15.10;99.90;;;;;;5102991;28;20458;-69
2022/09/09 10:08:47;;;;;;;1.57;1.27;;;15.10;99.90;;;;;;5105117;28;20467;-69
2022/09/09 10:11:30;;;;;;;1.80;1.50;;;15.00;99.90;;;;;;5101167;28;20484;-69
2022/09/09 10:14:10;;;;;;;2.60;2.00;;;14.90;99.90;;;;;;5102704;28;20433;-69
2022/09/09 10:16:54;;;;;;;2.93;1.87;;;14.90;99.90;;;;;;5092980;28;20432;-70
2022/09/09 10:19:33;;;;;;;1.70;1.60;;;14.80;99.90;;;;;;5096784;28;20461;-69
2022/09/09 10:22:28;;;;;;;1.83;1.20;;;14.70;99.90;;;;;;5101821;28;20462;-69
2022/09/09 10:25:23;;;;;;;1.43;1.33;;;14.60;99.90;;;;;;5091551;28;20458;-70
2022/09/09 10:28:12;;;;;;;2.40;2.17;;;14.60;99.90;;;;;;5101707;28;20513;-70
2022/09/09 10:30:53;;;;;;;1.90;1.80;;;14.60;99.90;;;;;;5101495;28;20507;-69
2022/09/09 10:33:32;;;;;;;3.40;2.60;;;14.60;99.90;;;;;;5102322;28;20490;-70
2022/09/09 10:36:14;;;;;;;2.07;1.90;;;14.50;99.90;;;;;;5101095;28;20450;-70
2022/09/09 10:38:47;;;;;;;2.80;1.80;;;14.50;99.90;;;;;;5104759;28;20864;-70
2022/09/09 10:41:36;;;;;;;3.40;1.97;;;14.50;99.90;;;;;;5109566;28;20504;-69
2022/09/09 10:44:22;;;;;;;2.50;2.00;;;14.40;99.90;;;;;;5109536;28;20477;-69
2022/09/09 10:47:05;;;;;;;3.00;1.47;;;14.40;99.90;;;;;;5094641;28;20457;-69
2022/09/09 10:50:03;;;;;;;2.80;2.30;;;14.30;99.90;;;;;;5107660;28;20503;-69
2022/09/09 10:52:42;;;;;;;2.10;1.83;;;14.30;99.90;;;;;;5102364;28;20458;-68
2022/09/09 10:55:18;;;;;;;2.00;1.80;;;14.30;99.90;;;;;;5104820;28;20470;-69
2022/09/09 10:57:52;;;;;;;3.30;2.00;;;14.30;99.90;;;;;;5115900;28;20945;-69
2022/09/09 11:00:25;;;;;;;3.43;1.90;;;14.20;99.90;;;;;;5110138;28;20575;-69
2022/09/09 11:02:58;;;;;;;2.00;1.70;;;14.20;99.90;;;;;;5107743;28;20579;-69
2022/09/09 11:05:33;;;;;;;2.80;1.97;;;14.10;99.90;;;;;;5107387;28;20454;-69
2022/09/09 11:08:11;;;;;;;3.23;1.80;;;14.00;99.90;;;;;;5105691;28;20977;-69
2022/09/09 11:10:47;;;;;;;6.37;2.13;;;14.00;99.90;;;;;;5112580;28;20455;-69
2022/09/09 11:13:24;;;;;;;1.70;1.57;;;14.00;99.90;;;;;;5116059;28;20427;-69
2022/09/09 11:16:01;;;;;;;2.00;1.77;;;14.00;99.90;;;;;;5108388;28;20454;-69
2022/09/09 11:18:39;;;;;;;2.60;2.40;;;13.90;99.90;;;;;;5103447;28;20476;-69
2022/09/09 11:21:18;;;;;;;2.77;2.10;;;13.90;99.90;;;;;;5110733;28;20512;-69
2022/09/09 11:23:54;;;;;;;3.47;2.00;;;13.80;99.90;;;;;;5105295;28;20462;-68
2022/09/09 11:26:33;;;;;;;2.20;2.00;;;13.70;99.90;;;;;;5104487;28;20458;-68
2022/09/09 11:29:28;;;;;;;7.80;2.40;;;13.60;99.90;;;;;;5090953;28;20458;-69
2022/09/09 11:32:14;;;;;;;2.40;2.20;;;13.60;99.90;;;;;;5104863;28;20797;-69
2022/09/09 11:34:58;;;;;;;2.30;1.90;;;13.60;99.90;;;;;;5100794;28;20462;-69
2022/09/09 11:37:54;;;;;;;2.33;2.13;;;13.50;99.90;;;;;;5107469;28;20802;-69
2022/09/09 11:40:26;;;;;;;2.20;1.70;;;13.40;99.90;;;;;;5107849;28;20466;-69
2022/09/09 11:43:07;;;;;;;3.47;1.90;;;13.40;99.90;;;;;;5122702;28;20510;-69
2022/09/09 11:45:39;;;;;;;2.10;1.87;;;13.40;99.90;;;;;;5108261;28;20872;-69
2022/09/09 11:48:27;;;;;;;2.87;2.30;;;13.30;99.90;;;;;;5107547;28;20469;-69
2022/09/09 11:51:05;;;;;;;2.60;2.17;;;13.20;99.90;;;;;;5091998;28;21261;-69
2022/09/09 11:53:36;;;;;;;2.80;2.00;;;13.10;99.90;;;;;;5115487;28;20468;-69
2022/09/09 11:56:10;;;;;;;3.13;1.93;;;13.00;99.90;;;;;;5124901;28;20446;-69
2022/09/09 11:58:45;;;;;;;3.90;2.00;;;13.00;99.90;;;;;;5119821;28;20450;-69
2022/09/09 12:01:29;;;;;;;2.23;2.03;;;13.00;99.90;;;;;;5123068;28;20485;-69
2022/09/09 12:04:29;;;;;;;2.77;1.90;;;13.00;99.90;;;;;;5124161;28;20441;-69
2022/09/09 12:07:03;;;;;;;4.60;2.23;;;13.00;99.90;;;;;;5125364;28;20442;-68
2022/09/09 12:09:51;;;;;;;2.53;1.80;;;13.00;99.90;;;;;;5110058;28;20453;-69
2022/09/09 12:12:26;;;;;;;2.80;2.00;;;12.90;99.90;;;;;;5102457;28;20569;-69
2022/09/09 12:15:02;;;;;;;2.47;1.73;;;12.90;99.90;;;;;;5111652;28;20449;-69
2022/09/09 12:17:43;;;;;;;2.03;1.87;;;12.80;99.90;;;;;;5124418;28;20549;-68
2022/09/09 12:20:17;;;;;;;2.47;2.27;;;12.80;99.90;;;;;;5102756;28;20470;-69
2022/09/09 12:23:15;;;;;;;3.27;2.33;;;12.90;99.90;;;;;;5103710;28;20486;-69
2022/09/09 12:26:09;;;;;;;1.67;1.50;;;12.80;99.90;;;;;;5117432;28;20445;-68
2022/09/09 12:29:00;;;;;;;3.07;1.70;;;12.80;99.90;;;;;;5104389;28;20443;-69
2022/09/09 12:31:38;;;;;;;2.30;2.10;;;12.80;99.90;;;;;;5112532;28;20454;-69
2022/09/09 12:34:18;;;;;;;3.63;2.50;;;12.70;99.90;;;;;;5106900;28;20509;-69
2022/09/09 12:36:59;;;;;;;2.57;1.90;;;12.70;99.90;;;;;;5097891;28;20466;-68
2022/09/09 12:39:35;;;;;;;2.00;1.80;;;12.70;99.90;;;;;;5106949;28;20550;-69
2022/09/09 12:42:07;;;;;;;3.00;1.93;;;12.70;99.90;;;;;;5103234;28;20524;-69
2022/09/09 12:44:38;;;;;;;3.30;2.30;;;12.60;99.90;;;;;;5107188;28;20459;-69
2022/09/09 12:47:09;;;;;;;3.50;1.90;;;12.60;99.90;;;;;;5103677;28;20459;-69
2022/09/09 12:49:43;;;;;;;2.93;1.90;;;12.60;99.90;;;;;;5110911;28;20461;-69
2022/09/09 12:52:20;;;;;;;2.50;1.93;;;12.60;99.90;;;;;;5107636;28;20452;-69
2022/09/09 12:54:53;;;;;;;2.63;2.33;;;12.60;99.90;;;;;;5109045;28;20476;-69
2022/09/09 12:57:27;;;;;;;2.77;2.10;;;12.60;99.90;;;;;;5112114;28;20491;-69
2022/09/09 13:00:13;;;;;;;2.53;1.87;;;12.60;99.90;;;;;;5106741;28;20524;-69
2022/09/09 13:02:52;;;;;;;2.00;1.70;;;12.60;99.90;;;;;;5109370;28;20574;-68
2022/09/09 13:05:26;;;;;;;2.67;2.07;;;12.60;99.90;;;;;;5104018;28;20462;-69
2022/09/09 13:08:04;;;;;;;2.30;2.10;;;12.60;99.90;;;;;;5107233;28;20463;-69
2022/09/09 13:10:38;;;;;;;2.50;1.90;;;12.60;99.90;;;;;;5101497;28;20520;-69
2022/09/09 13:13:24;;;;;;;3.20;2.27;;;12.60;99.90;;;;;;5105072;28;20459;-68
2022/09/09 13:15:57;;;;;;;2.63;2.43;;;12.60;99.90;;;;;;5103721;28;20515;-67
2022/09/09 13:18:31;;;;;;;5.90;2.10;;;12.40;99.90;;;;;;5098192;28;20482;-67
2022/09/09 13:21:06;;;;;;;2.50;2.27;;;12.40;99.90;;;;;;5107210;28;20462;-68
2022/09/09 13:23:38;;;;;;;3.20;1.87;;;12.40;99.90;;;;;;5103866;28;21739;-67
2022/09/09 13:26:23;;;;;;;3.07;2.00;;;12.40;99.90;;;;;;5103943;28;20481;-67
2022/09/09 13:28:55;;;;;;;2.37;1.90;;;12.40;99.90;;;;;;5105410;28;20438;-68
2022/09/09 13:31:30;;;;;;;2.50;2.30;;;12.40;99.90;;;;;;5110929;28;20837;-67